createdAt,value
2019-05-25T00:00:28.901Z,14.00
2019-05-25T00:02:55.421Z,8.83
2019-05-25T00:05:22.170Z,23.27
2019-05-25T00:07:48.514Z,26.40
2019-05-25T00:10:15.311Z,16.50
2019-05-25T00:12:41.687Z,9.03
2019-05-25T00:15:08.629Z,9.13
2019-05-25T00:17:34.983Z,11.90
2019-05-25T00:20:01.705Z,10.13
2019-05-25T00:22:30.907Z,9.10
2019-05-25T00:24:57.423Z,8.67
2019-05-25T00:27:24.083Z,8.40
2019-05-25T00:29:50.897Z,8.20
2019-05-25T00:32:17.404Z,14.10
2019-05-25T00:34:43.898Z,18.00
2019-05-25T00:37:10.459Z,9.00
2019-05-25T00:39:36.977Z,9.33
2019-05-25T00:42:03.357Z,7.10
2019-05-25T00:44:29.703Z,7.23
2019-05-25T00:46:56.049Z,6.60
2019-05-25T00:49:22.808Z,7.47
2019-05-25T00:51:49.227Z,7.77
2019-05-25T00:54:27.440Z,8.00
2019-05-25T00:56:44.919Z,9.53
2019-05-25T00:59:11.255Z,9.83
2019-05-25T01:01:37.606Z,9.40
2019-05-25T01:04:03.985Z,9.30
2019-05-25T01:06:30.327Z,18.93
2019-05-25T01:08:56.682Z,8.80
2019-05-25T01:11:23.346Z,7.10
2019-05-25T01:13:49.699Z,7.20
2019-05-25T01:16:16.044Z,7.20
2019-05-25T01:18:42.393Z,10.17
2019-05-25T01:21:08.722Z,10.43
2019-05-25T01:23:35.405Z,6.80
2019-05-25T01:26:01.737Z,10.20
2019-05-25T01:28:28.088Z,10.93
2019-05-25T01:30:54.410Z,10.60
2019-05-25T01:33:21.046Z,7.03
2019-05-25T01:35:47.414Z,10.40
2019-05-25T01:38:13.745Z,8.10
2019-05-25T01:40:40.444Z,19.73
2019-05-25T01:43:07.798Z,10.20
2019-05-25T01:45:34.136Z,11.80
2019-05-25T01:48:00.455Z,13.03
2019-05-25T01:50:26.852Z,9.50
2019-05-25T01:52:53.189Z,14.67
2019-05-25T01:55:21.409Z,12.13
2019-05-25T01:57:49.718Z,13.13
2019-05-25T02:00:23.693Z,11.60
2019-05-25T02:02:50.038Z,9.60
2019-05-25T02:05:17.065Z,12.70
2019-05-25T02:07:43.409Z,9.77
2019-05-25T02:10:10.619Z,10.33
2019-05-25T02:12:36.970Z,11.53
2019-05-25T02:15:09.281Z,10.83
2019-05-25T02:17:35.664Z,8.33
2019-05-25T02:20:05.714Z,8.03
2019-05-25T02:22:32.046Z,8.83
2019-05-25T02:24:58.396Z,8.67
2019-05-25T02:27:24.774Z,19.87
2019-05-25T02:29:51.140Z,17.60
2019-05-25T02:32:17.460Z,8.93
2019-05-25T02:34:44.662Z,8.27
2019-05-25T02:37:11.157Z,9.33
2019-05-25T02:39:37.483Z,12.30
2019-05-25T02:42:04.100Z,8.70
2019-05-25T02:44:30.464Z,11.40
2019-05-25T02:46:56.787Z,13.70
2019-05-25T02:49:23.130Z,8.93
2019-05-25T02:51:49.452Z,7.50
2019-05-25T02:54:16.151Z,9.40
2019-05-25T02:56:42.468Z,8.03
2019-05-25T02:59:08.825Z,12.97
2019-05-25T03:01:35.206Z,11.97
2019-05-25T03:04:01.518Z,12.70
2019-05-25T03:06:28.760Z,12.43
2019-05-25T03:08:55.903Z,15.10
2019-05-25T03:11:22.366Z,9.87
2019-05-25T03:13:48.913Z,18.00
2019-05-25T03:16:15.311Z,11.70
2019-05-25T03:18:41.712Z,8.90
2019-05-25T03:21:09.259Z,10.57
2019-05-25T03:23:35.596Z,10.40
2019-05-25T03:26:01.914Z,10.90
2019-05-25T03:28:28.281Z,9.60
2019-05-25T03:30:54.698Z,14.50
2019-05-25T03:33:21.068Z,16.73
2019-05-25T03:35:47.696Z,10.87
2019-05-25T03:38:14.374Z,9.97
2019-05-25T03:40:40.750Z,11.93
2019-05-25T03:43:07.177Z,9.07
2019-05-25T03:45:33.778Z,11.10
2019-05-25T03:48:00.354Z,8.23
2019-05-25T03:50:27.048Z,10.97
2019-05-25T03:52:53.425Z,9.87
2019-05-25T03:55:19.862Z,8.40
2019-05-25T03:57:46.212Z,12.43
2019-05-25T04:00:14.577Z,10.17
2019-05-25T04:02:41.163Z,11.90
2019-05-25T04:05:07.902Z,11.20
2019-05-25T04:07:34.306Z,10.70
2019-05-25T04:10:00.692Z,11.33
2019-05-25T04:12:27.537Z,10.97
2019-05-25T04:14:53.941Z,9.67
2019-05-25T04:17:20.272Z,10.83
2019-05-25T04:19:49.803Z,13.40
2019-05-25T04:22:16.265Z,8.20
2019-05-25T04:24:42.697Z,10.67
2019-05-25T04:27:09.008Z,9.40
2019-05-25T04:29:37.344Z,12.77
2019-05-25T04:32:04.017Z,12.37
2019-05-25T04:34:30.347Z,9.77
2019-05-25T04:36:56.728Z,7.93
2019-05-25T04:39:23.120Z,18.13
2019-05-25T04:41:50.552Z,9.60
2019-05-25T04:44:16.956Z,9.80
2019-05-25T04:46:43.590Z,10.80
2019-05-25T04:49:09.950Z,9.53
2019-05-25T04:51:36.284Z,9.63
2019-05-25T04:54:03.209Z,11.77
2019-05-25T04:56:39.112Z,11.70
2019-05-25T04:58:57.807Z,11.17
2019-05-25T05:01:24.129Z,12.80
2019-05-25T05:03:50.548Z,11.70
2019-05-25T05:06:16.867Z,12.83
2019-05-25T05:08:43.227Z,18.50
2019-05-25T05:11:09.559Z,14.17
2019-05-25T05:13:35.926Z,12.97
2019-05-25T05:16:04.353Z,14.07
2019-05-25T05:18:30.699Z,12.87
2019-05-25T05:20:58.195Z,11.07
2019-05-25T05:23:24.525Z,12.27
2019-05-25T05:25:50.966Z,14.87
2019-05-25T05:28:17.581Z,12.57
2019-05-25T05:30:43.948Z,17.23
2019-05-25T05:33:10.339Z,14.20
2019-05-25T05:35:39.064Z,16.23
2019-05-25T05:38:06.118Z,15.57
2019-05-25T05:40:34.405Z,15.53
2019-05-25T05:43:08.785Z,14.80
2019-05-25T05:45:41.200Z,18.67
2019-05-25T05:48:09.810Z,14.13
2019-05-25T05:50:38.558Z,18.53
2019-05-25T05:53:04.887Z,28.93
2019-05-25T05:55:31.735Z,19.70
2019-05-25T05:58:00.478Z,15.77
2019-05-25T06:00:27.054Z,17.23
2019-05-25T06:02:53.815Z,20.37
2019-05-25T06:05:20.282Z,17.70
2019-05-25T06:07:46.633Z,15.63
2019-05-25T06:10:13.278Z,14.33
2019-05-25T06:12:39.814Z,14.40
2019-05-25T06:15:06.573Z,15.43
2019-05-25T06:17:32.919Z,14.97
2019-05-25T06:19:59.364Z,15.53
2019-05-25T06:22:25.752Z,13.30
2019-05-25T06:24:52.636Z,18.43
2019-05-25T06:27:27.629Z,12.93
2019-05-25T06:29:47.269Z,19.13
2019-05-25T06:32:13.628Z,13.77
2019-05-25T06:34:40.217Z,12.23
2019-05-25T06:37:06.661Z,15.27
2019-05-25T06:39:34.348Z,12.57
2019-05-25T06:42:00.781Z,15.60
2019-05-25T06:44:27.161Z,12.87
2019-05-25T06:46:53.639Z,10.47
2019-05-25T06:49:20.211Z,10.43
2019-05-25T06:51:48.835Z,12.70
2019-05-25T06:54:15.296Z,23.10
2019-05-25T06:56:42.021Z,11.50
2019-05-25T06:59:11.370Z,11.30
2019-05-25T07:01:37.987Z,11.53
2019-05-25T07:04:04.378Z,16.67
2019-05-25T07:06:30.750Z,12.17
2019-05-25T07:08:57.116Z,11.07
2019-05-25T07:11:23.495Z,14.50
2019-05-25T07:13:49.857Z,14.87
2019-05-25T07:16:16.253Z,12.40
2019-05-25T07:18:42.641Z,13.27
2019-05-25T07:21:09.278Z,11.50
2019-05-25T07:23:35.972Z,20.73
2019-05-25T07:26:03.437Z,11.60
2019-05-25T07:28:30.913Z,13.60
2019-05-25T07:30:57.245Z,7.67
2019-05-25T07:33:23.706Z,14.80
2019-05-25T07:35:51.956Z,9.50
2019-05-25T07:38:18.326Z,9.90
2019-05-25T07:40:44.704Z,10.70
2019-05-25T07:43:11.363Z,10.47
2019-05-25T07:45:37.729Z,10.00
2019-05-25T07:48:04.090Z,13.03
2019-05-25T07:50:30.458Z,12.47
2019-05-25T07:52:56.788Z,10.93
2019-05-25T07:55:24.181Z,13.53
2019-05-25T07:57:50.616Z,9.67
2019-05-25T08:00:17.350Z,11.03
2019-05-25T08:02:43.897Z,9.27
2019-05-25T08:05:11.754Z,9.63
2019-05-25T08:07:38.134Z,21.10
2019-05-25T08:10:05.361Z,11.13
2019-05-25T08:12:32.842Z,12.17
2019-05-25T08:15:10.146Z,11.00
2019-05-25T08:17:36.592Z,10.57
2019-05-25T08:20:07.461Z,10.23
2019-05-25T08:22:34.254Z,8.23
2019-05-25T08:25:09.656Z,10.40
2019-05-25T08:27:36.140Z,9.53
2019-05-25T08:30:07.291Z,10.53
2019-05-25T08:32:33.795Z,8.47
2019-05-25T08:35:00.126Z,10.23
2019-05-25T08:37:26.920Z,10.03
2019-05-25T08:39:53.271Z,7.53
2019-05-25T08:42:19.649Z,7.73
2019-05-25T08:44:46.011Z,8.30
2019-05-25T08:47:12.499Z,6.67
2019-05-25T08:49:38.859Z,5.60
2019-05-25T08:52:06.296Z,7.70
2019-05-25T08:54:32.632Z,9.03
2019-05-25T08:56:58.987Z,5.00
2019-05-25T08:59:25.346Z,4.17
2019-05-25T09:01:53.665Z,4.77
2019-05-25T09:04:19.985Z,6.10
2019-05-25T09:06:46.380Z,4.07
2019-05-25T09:09:12.709Z,3.77
2019-05-25T09:11:39.061Z,4.70
2019-05-25T09:14:05.389Z,5.03
2019-05-25T09:16:32.146Z,5.17
2019-05-25T09:18:58.857Z,3.00
2019-05-25T09:21:25.401Z,9.23
2019-05-25T09:23:51.835Z,6.23
2019-05-25T09:26:18.277Z,3.53
2019-05-25T09:28:44.613Z,4.07
2019-05-25T09:31:11.249Z,11.07
2019-05-25T09:33:37.936Z,13.93
2019-05-25T09:36:04.390Z,5.57
2019-05-25T09:38:31.067Z,11.07
2019-05-25T09:40:57.785Z,7.17
2019-05-25T09:43:24.439Z,9.03
2019-05-25T09:45:54.645Z,10.00
2019-05-25T09:48:21.153Z,8.00
2019-05-25T09:50:47.533Z,5.47
2019-05-25T09:53:13.925Z,7.70
2019-05-25T09:55:45.563Z,8.00
2019-05-25T09:58:12.145Z,9.83
2019-05-25T10:00:45.006Z,8.73
2019-05-25T10:03:31.652Z,8.50
2019-05-25T10:05:58.221Z,5.90
2019-05-25T10:08:24.829Z,4.97
2019-05-25T10:10:51.168Z,10.43
2019-05-25T10:13:17.600Z,6.50
2019-05-25T10:15:44.124Z,12.03
2019-05-25T10:18:10.522Z,6.00
2019-05-25T10:20:37.294Z,8.73
2019-05-25T10:23:05.506Z,12.13
2019-05-25T10:25:32.320Z,7.80
2019-05-25T10:27:58.707Z,6.97
2019-05-25T10:30:25.136Z,5.63
2019-05-25T10:32:51.901Z,6.10
2019-05-25T10:35:18.742Z,7.77
2019-05-25T10:37:45.316Z,9.43
2019-05-25T10:40:12.206Z,6.30
2019-05-25T10:42:39.969Z,9.63
2019-05-25T10:45:08.506Z,9.67
2019-05-25T10:47:34.978Z,8.80
2019-05-25T10:50:08.611Z,6.57
2019-05-25T10:52:34.993Z,13.43
2019-05-25T10:55:02.175Z,10.47
2019-05-25T10:57:28.912Z,10.23
2019-05-25T10:59:55.281Z,10.20
2019-05-25T11:02:21.604Z,7.17
2019-05-25T11:04:48.219Z,9.03
2019-05-25T11:07:14.865Z,10.13
2019-05-25T11:09:41.375Z,9.90
2019-05-25T11:12:07.717Z,6.37
2019-05-25T11:14:34.053Z,9.40
2019-05-25T11:17:00.429Z,10.30
2019-05-25T11:19:26.775Z,8.47
2019-05-25T11:21:53.591Z,7.17
2019-05-25T11:24:20.080Z,7.10
2019-05-25T11:26:46.426Z,8.60
2019-05-25T11:29:12.779Z,7.80
2019-05-25T11:31:40.319Z,7.10
2019-05-25T11:34:06.675Z,8.23
2019-05-25T11:36:34.149Z,11.53
2019-05-25T11:39:01.596Z,10.93
2019-05-25T11:41:29.274Z,10.43
2019-05-25T11:43:57.327Z,8.50
2019-05-25T11:46:24.861Z,12.17
2019-05-25T11:48:51.251Z,14.23
2019-05-25T11:51:17.930Z,7.87
2019-05-25T11:53:44.301Z,10.03
2019-05-25T11:56:10.623Z,8.47
2019-05-25T11:58:47.069Z,10.73
2019-05-25T12:01:05.445Z,9.37
2019-05-25T12:03:31.941Z,16.43
2019-05-25T12:05:58.302Z,7.53
2019-05-25T12:08:24.647Z,10.30
2019-05-25T12:10:51.011Z,8.40
2019-05-25T12:13:17.335Z,10.03
2019-05-25T12:15:43.742Z,6.20
2019-05-25T12:18:10.450Z,7.83
2019-05-25T12:20:36.902Z,6.50
2019-05-25T12:23:04.059Z,7.67
2019-05-25T12:25:31.012Z,7.20
2019-05-25T12:27:57.381Z,6.27
2019-05-25T12:30:39.428Z,8.93
2019-05-25T12:32:53.294Z,8.63
2019-05-25T12:35:19.729Z,13.70
2019-05-25T12:37:53.506Z,6.13
2019-05-25T12:40:21.158Z,6.63
2019-05-25T12:42:47.500Z,6.40
2019-05-25T12:45:14.084Z,5.40
2019-05-25T12:47:40.681Z,8.30
2019-05-25T12:50:07.474Z,5.40
2019-05-25T12:52:33.937Z,6.00
2019-05-25T12:55:01.238Z,8.07
2019-05-25T12:57:27.568Z,6.97
2019-05-25T12:59:53.919Z,7.70
2019-05-25T13:02:22.608Z,11.53
2019-05-25T13:05:15.881Z,7.97
2019-05-25T13:07:43.050Z,9.60
2019-05-25T13:10:10.714Z,8.60
2019-05-25T13:12:37.148Z,8.30
2019-05-25T13:15:06.319Z,8.77
2019-05-25T13:17:32.646Z,8.87
2019-05-25T13:19:59.154Z,9.63
2019-05-25T13:22:26.605Z,8.20
2019-05-25T13:24:53.282Z,9.53
2019-05-25T13:27:19.947Z,11.47
2019-05-25T13:29:46.582Z,9.97
2019-05-25T13:32:12.918Z,6.17
2019-05-25T13:34:39.248Z,6.53
2019-05-25T13:37:05.696Z,8.47
2019-05-25T13:39:33.685Z,5.83
2019-05-25T13:42:00.022Z,7.33
2019-05-25T13:44:26.834Z,5.63
2019-05-25T13:46:53.321Z,6.20
2019-05-25T13:49:19.939Z,4.80
2019-05-25T13:51:50.670Z,6.43
2019-05-25T13:54:17.464Z,6.57
2019-05-25T13:56:44.109Z,8.00
2019-05-25T13:59:13.448Z,6.03
2019-05-25T14:01:39.837Z,7.20
2019-05-25T14:04:06.492Z,5.73
2019-05-25T14:06:33.205Z,4.67
2019-05-25T14:08:59.548Z,5.57
2019-05-25T14:11:27.004Z,7.43
2019-05-25T14:13:53.438Z,10.50
2019-05-25T14:16:19.808Z,8.93
2019-05-25T14:18:46.682Z,9.30
2019-05-25T14:21:13.363Z,8.70
2019-05-25T14:23:40.812Z,9.43
2019-05-25T14:26:08.203Z,5.30
2019-05-25T14:28:34.596Z,8.03
2019-05-25T14:31:00.905Z,11.37
2019-05-25T14:33:27.292Z,6.93
2019-05-25T14:35:55.632Z,9.53
2019-05-25T14:38:22.325Z,7.27
2019-05-25T14:40:48.675Z,10.90
2019-05-25T14:43:14.983Z,10.40
2019-05-25T14:45:43.221Z,7.60
2019-05-25T14:48:09.571Z,11.53
2019-05-25T14:50:36.400Z,10.17
2019-05-25T14:53:04.688Z,9.17
2019-05-25T14:55:31.006Z,9.83
2019-05-25T14:57:57.436Z,11.63
2019-05-25T15:00:25.317Z,8.93
2019-05-25T15:02:52.029Z,8.87
2019-05-25T15:05:18.682Z,8.53
2019-05-25T15:07:46.467Z,7.63
2019-05-25T15:10:13.836Z,9.70
2019-05-25T15:12:40.145Z,7.33
2019-05-25T15:15:07.430Z,10.27
2019-05-25T15:17:37.251Z,8.63
2019-05-25T15:20:10.755Z,7.60
2019-05-25T15:22:37.554Z,8.53
2019-05-25T15:25:10.951Z,10.20
2019-05-25T15:27:38.628Z,10.20
2019-05-25T15:30:06.484Z,9.90
2019-05-25T15:32:32.853Z,9.00
2019-05-25T15:35:00.015Z,10.37
2019-05-25T15:37:26.784Z,11.10
2019-05-25T15:39:53.176Z,13.50
2019-05-25T15:42:19.504Z,13.80
2019-05-25T15:44:46.071Z,13.40
2019-05-25T15:47:12.462Z,11.73
2019-05-25T15:49:41.164Z,13.03
2019-05-25T15:52:07.834Z,13.40
2019-05-25T15:54:34.181Z,12.43
2019-05-25T15:57:00.844Z,13.73
2019-05-25T15:59:27.157Z,10.40
2019-05-25T16:01:53.487Z,11.60
2019-05-25T16:04:19.821Z,11.37
2019-05-25T16:06:46.177Z,10.70
2019-05-25T16:09:12.945Z,13.90
2019-05-25T16:11:39.310Z,13.63
2019-05-25T16:14:07.602Z,14.67
2019-05-25T16:16:33.915Z,11.77
2019-05-25T16:19:00.255Z,14.10
2019-05-25T16:21:27.900Z,13.40
2019-05-25T16:23:54.349Z,14.40
2019-05-25T16:26:20.714Z,14.00
2019-05-25T16:28:47.356Z,19.73
2019-05-25T16:31:13.713Z,11.60
2019-05-25T16:33:40.175Z,12.83
2019-05-25T16:36:06.955Z,14.43
2019-05-25T16:38:33.291Z,16.43
2019-05-25T16:41:00.925Z,17.37
2019-05-25T16:43:27.253Z,18.30
2019-05-25T16:46:26.382Z,20.90
2019-05-25T16:48:53.848Z,18.47
2019-05-25T16:51:21.234Z,19.20
2019-05-25T16:53:47.565Z,18.17
2019-05-25T16:56:13.899Z,20.43
2019-05-25T16:58:40.228Z,17.87
2019-05-25T17:01:06.561Z,16.40
2019-05-25T17:03:33.560Z,26.77
2019-05-25T17:05:59.941Z,18.53
2019-05-25T17:08:31.844Z,21.03
2019-05-25T17:11:00.776Z,19.20
2019-05-25T17:13:27.123Z,18.40
2019-05-25T17:15:53.526Z,19.70
2019-05-25T17:18:19.968Z,19.00
2019-05-25T17:20:47.183Z,26.80
2019-05-25T17:23:13.845Z,19.03
2019-05-25T17:25:41.408Z,18.17
2019-05-25T17:28:09.034Z,18.57
2019-05-25T17:30:44.532Z,17.57
2019-05-25T17:33:11.704Z,19.60
2019-05-25T17:35:41.194Z,21.57
2019-05-25T17:38:08.428Z,18.13
2019-05-25T17:40:34.899Z,20.17
2019-05-25T17:43:01.453Z,18.57
2019-05-25T17:45:27.772Z,16.90
2019-05-25T17:47:54.109Z,16.00
2019-05-25T17:50:20.544Z,16.10
2019-05-25T17:52:46.975Z,20.63
2019-05-25T17:55:14.708Z,13.27
2019-05-25T17:57:41.686Z,18.97
2019-05-25T18:00:08.943Z,13.50
2019-05-25T18:02:35.279Z,15.63
2019-05-25T18:05:02.810Z,13.73
2019-05-25T18:07:29.160Z,16.23
2019-05-25T18:09:55.833Z,13.00
2019-05-25T18:12:22.193Z,12.60
2019-05-25T18:14:48.493Z,11.93
2019-05-25T18:17:14.813Z,13.30
2019-05-25T18:19:41.186Z,16.87
2019-05-25T18:22:07.551Z,11.90
2019-05-25T18:24:33.964Z,16.77
2019-05-25T18:27:00.838Z,12.67
2019-05-25T18:29:27.212Z,11.73
2019-05-25T18:31:53.649Z,15.93
2019-05-25T18:34:22.404Z,14.70
2019-05-25T18:36:48.512Z,20.60
2019-05-25T18:39:14.894Z,18.23
2019-05-25T18:41:41.223Z,18.03
2019-05-25T18:44:07.663Z,14.40
2019-05-25T18:46:34.026Z,17.50
2019-05-25T18:49:01.605Z,16.77
2019-05-25T18:51:28.264Z,13.70
2019-05-25T18:53:55.060Z,19.43
2019-05-25T18:56:21.497Z,12.90
2019-05-25T18:58:47.904Z,14.10
2019-05-25T19:01:15.491Z,17.60
2019-05-25T19:03:42.304Z,18.43
2019-05-25T19:06:08.847Z,13.87
2019-05-25T19:08:35.591Z,16.70
2019-05-25T19:11:01.985Z,14.97
2019-05-25T19:13:28.445Z,22.23
2019-05-25T19:15:54.787Z,14.53
2019-05-25T19:18:21.282Z,16.63
2019-05-25T19:20:47.602Z,17.53
2019-05-25T19:23:13.944Z,16.47
2019-05-25T19:25:40.281Z,13.53
2019-05-25T19:28:06.614Z,15.87
2019-05-25T19:30:33.308Z,14.60
2019-05-25T19:32:59.746Z,16.47
2019-05-25T19:35:26.093Z,13.23
2019-05-25T19:37:52.447Z,14.10
2019-05-25T19:40:19.057Z,13.67
2019-05-25T19:42:49.510Z,11.50
2019-05-25T19:45:14.486Z,10.43
2019-05-25T19:47:40.861Z,16.67
2019-05-25T19:50:07.597Z,12.30
2019-05-25T19:52:33.972Z,15.90
2019-05-25T19:55:00.896Z,13.93
2019-05-25T19:57:27.252Z,16.43
2019-05-25T19:59:53.585Z,14.73
2019-05-25T20:02:19.961Z,15.80
2019-05-25T20:04:46.435Z,11.50
2019-05-25T20:07:12.938Z,16.40
2019-05-25T20:09:39.261Z,15.93
2019-05-25T20:12:05.626Z,10.90
2019-05-25T20:14:31.987Z,15.57
2019-05-25T20:16:58.687Z,15.80
2019-05-25T20:19:25.353Z,12.00
2019-05-25T20:25:28.379Z,15.43
2019-05-25T20:27:54.775Z,10.90
2019-05-25T20:30:21.166Z,17.80
2019-05-25T20:32:47.590Z,13.57
2019-05-25T20:35:14.590Z,10.63
2019-05-25T20:37:41.245Z,12.50
2019-05-25T20:40:08.769Z,14.87
2019-05-25T20:42:35.795Z,19.33
2019-05-25T20:45:07.306Z,18.43
2019-05-25T20:47:33.623Z,20.37
2019-05-25T20:50:00.282Z,15.53
2019-05-25T20:52:26.602Z,10.50
2019-05-25T20:54:52.978Z,17.87
2019-05-25T20:57:19.290Z,12.27
2019-05-25T20:59:45.642Z,17.10
2019-05-25T21:02:12.263Z,14.47
2019-05-25T21:04:38.609Z,15.30
2019-05-25T21:07:04.980Z,15.40
2019-05-25T21:09:31.332Z,12.10
2019-05-25T21:11:57.707Z,21.07
2019-05-25T21:14:24.412Z,12.70
2019-05-25T21:16:53.723Z,15.57
2019-05-25T21:19:21.921Z,19.27
2019-05-25T21:21:48.246Z,26.63
2019-05-25T21:24:14.692Z,16.40
2019-05-25T21:26:41.031Z,14.90
2019-05-25T21:29:07.391Z,19.33
2019-05-25T21:31:33.745Z,9.80
2019-05-25T21:34:01.064Z,10.43
2019-05-25T21:36:27.411Z,9.53
2019-05-25T21:38:54.161Z,14.40
2019-05-25T21:41:20.530Z,12.03
2019-05-25T21:43:46.949Z,11.83
2019-05-25T21:46:14.689Z,8.60
2019-05-25T21:48:41.304Z,8.40
2019-05-25T21:51:09.606Z,12.03
2019-05-25T21:53:35.916Z,11.17
2019-05-25T21:56:02.294Z,7.70
2019-05-25T21:58:28.921Z,9.93
2019-05-25T22:00:55.285Z,9.10
2019-05-25T22:03:23.630Z,8.10
2019-05-25T22:05:49.951Z,10.07
2019-05-25T22:08:16.256Z,12.77
2019-05-25T22:10:42.601Z,16.70
2019-05-25T22:13:24.947Z,13.50
2019-05-25T22:15:37.302Z,11.17
2019-05-25T22:18:04.229Z,10.07
2019-05-25T22:20:30.883Z,10.27
2019-05-25T22:22:57.235Z,8.70
2019-05-25T22:25:23.548Z,10.13
2019-05-25T22:27:50.322Z,10.03
2019-05-25T22:30:17.346Z,10.33
2019-05-25T22:32:43.698Z,12.27
2019-05-25T22:35:11.279Z,8.23
2019-05-25T22:37:37.692Z,6.80
2019-05-25T22:40:05.850Z,7.27
2019-05-25T22:42:32.204Z,8.93
2019-05-25T22:44:58.549Z,8.47
2019-05-25T22:47:24.865Z,12.43
2019-05-25T22:49:52.426Z,9.50
2019-05-25T22:52:18.745Z,12.23
2019-05-25T22:54:45.098Z,7.93
2019-05-25T22:57:11.406Z,13.77
2019-05-25T22:59:37.746Z,9.27
2019-05-25T23:02:23.100Z,12.77
2019-05-25T23:04:49.475Z,7.57
2019-05-25T23:07:16.211Z,13.63
2019-05-25T23:09:42.543Z,8.60
2019-05-25T23:12:10.234Z,13.83
2019-05-25T23:14:36.609Z,11.73
2019-05-25T23:17:03.544Z,7.70
2019-05-25T23:19:29.881Z,7.93
2019-05-25T23:21:56.210Z,8.10
2019-05-25T23:24:22.971Z,7.10
2019-05-25T23:26:49.313Z,7.67
2019-05-25T23:29:15.649Z,12.13
2019-05-25T23:31:41.975Z,10.07
2019-05-25T23:34:08.344Z,10.67
2019-05-25T23:36:34.667Z,9.20
2019-05-25T23:39:01.008Z,8.10
2019-05-25T23:41:27.684Z,9.07
2019-05-25T23:43:54.048Z,6.97
2019-05-25T23:46:20.410Z,8.10
2019-05-25T23:48:47.842Z,15.10
2019-05-25T23:51:14.208Z,9.60
2019-05-25T23:53:41.551Z,11.07
2019-05-25T23:56:07.906Z,11.60
2019-05-25T23:58:34.268Z,10.90
